Time;durP1;ratioP1;P1;durP2;ratioP2;P2;SDS_P1;SDS_P2;PMS_P1;PMS_P2;Temp;Humidity;BMP_temperature;BMP_pressure;BME280_temperature;BME280_humidity;BME280_pressure;Samples;Min_cycle;Max_cycle;Signal;HPM_P1;HPM_P2
2022/12/18 00:01:49;;;;;;;45.90;15.90;;;;;;;;;;103375;1306;22475;-80
2022/12/18 00:04:19;;;;;;;46.70;14.70;;;;;;;;;;103405;1306;23936;-81
2022/12/18 00:06:46;;;;;;;51.40;16.70;;;;;;;;;;103488;1305;24231;-78
2022/12/18 00:09:14;;;;;;;39.90;12.20;;;;;;;;;;103528;1306;24250;-80
2022/12/18 00:11:41;;;;;;;36.70;13.60;;;;;;;;;;103388;1296;22490;-78
2022/12/18 00:14:08;;;;;;;38.40;13.60;;;;;;;;;;103503;1306;25338;-81
2022/12/18 00:16:36;;;;;;;37.40;13.10;;;;;;;;;;103585;1306;25218;-81
2022/12/18 00:19:04;;;;;;;35.60;14.70;;;;;;;;;;106785;1305;22062;-76
2022/12/18 00:21:31;;;;;;;34.40;13.60;;;;;;;;;;107102;1299;22057;-77
2022/12/18 00:23:58;;;;;;;36.10;13.70;;;;;;;;;;106947;1306;22075;-77
2022/12/18 00:26:26;;;;;;;34.90;13.30;;;;;;;;;;106865;1307;22986;-77
2022/12/18 00:28:55;;;;;;;38.50;14.10;;;;;;;;;;106918;1306;22101;-77
2022/12/18 00:31:22;;;;;;;37.80;13.50;;;;;;;;;;106868;1294;22079;-77
2022/12/18 00:33:49;;;;;;;34.90;12.50;;;;;;;;;;107079;1285;22717;-77
2022/12/18 00:36:17;;;;;;;34.90;12.60;;;;;;;;;;106727;1307;22326;-77
2022/12/18 00:38:44;;;;;;;41.20;14.20;;;;;;;;;;106768;1306;22083;-77
2022/12/18 00:41:12;;;;;;;38.20;13.50;;;;;;;;;;106890;1306;22119;-76
2022/12/18 00:43:39;;;;;;;40.30;13.70;;;;;;;;;;107059;1302;22190;-77
2022/12/18 00:46:06;;;;;;;35.90;13.60;;;;;;;;;;106839;1306;22114;-77
2022/12/18 00:48:32;;;;;;;34.80;13.70;;;;;;;;;;106860;1306;22144;-77
2022/12/18 00:50:59;;;;;;;32.90;12.50;;;;;;;;;;106915;1305;22343;-77
2022/12/18 00:53:25;;;;;;;31.50;11.30;;;;;;;;;;106907;1305;22008;-77
2022/12/18 00:55:52;;;;;;;33.90;13.70;;;;;;;;;;106843;1306;22094;-77
2022/12/18 00:58:19;;;;;;;38.70;13.00;;;;;;;;;;106699;1309;22547;-77
2022/12/18 01:00:45;;;;;;;37.20;13.50;;;;;;;;;;106747;1309;21987;-77
2022/12/18 01:03:13;;;;;;;36.70;14.90;;;;;;;;;;106697;1309;22088;-77
2022/12/18 01:05:40;;;;;;;39.70;15.40;;;;;;;;;;106705;1309;22538;-77
2022/12/18 01:08:07;;;;;;;37.70;13.40;;;;;;;;;;106771;1300;22202;-77
2022/12/18 01:10:34;;;;;;;33.20;11.20;;;;;;;;;;106784;1294;22102;-77
2022/12/18 01:13:00;;;;;;;25.50;10.30;;;;;;;;;;106636;1309;22532;-77
2022/12/18 01:15:27;;;;;;;28.70;11.20;;;;;;;;;;106931;1294;22093;-77
2022/12/18 01:17:53;;;;;;;36.60;12.50;;;;;;;;;;106698;1309;22836;-77
2022/12/18 01:20:20;;;;;;;27.60;9.40;;;;;;;;;;106766;1309;22086;-77
2022/12/18 01:22:47;;;;;;;33.80;11.90;;;;;;;;;;106778;1309;22061;-77
2022/12/18 01:25:13;;;;;;;31.60;12.00;;;;;;;;;;106687;1309;21969;-77
2022/12/18 01:27:40;;;;;;;30.50;11.00;;;;;;;;;;106757;1309;22079;-78
2022/12/18 01:30:07;;;;;;;31.60;12.20;;;;;;;;;;107047;1299;22178;-77
2022/12/18 01:32:33;;;;;;;28.30;11.40;;;;;;;;;;106795;1307;22076;-77
2022/12/18 01:35:02;;;;;;;32.00;11.00;;;;;;;;;;106739;1309;22926;-76
2022/12/18 01:37:29;;;;;;;31.70;11.90;;;;;;;;;;106717;1309;22839;-77
2022/12/18 01:39:56;;;;;;;25.30;9.60;;;;;;;;;;106723;1308;22037;-77
2022/12/18 01:42:23;;;;;;;34.20;11.50;;;;;;;;;;106850;1305;22125;-77
2022/12/18 01:44:57;;;;;;;33.10;10.40;;;;;;;;;;106834;1293;22089;-76
2022/12/18 01:47:36;;;;;;;29.70;10.30;;;;;;;;;;106773;1302;21939;-76
2022/12/18 01:50:09;;;;;;;29.90;11.10;;;;;;;;;;106871;1307;22058;-77
2022/12/18 01:52:36;;;;;;;31.90;12.90;;;;;;;;;;106868;1308;22642;-77
2022/12/18 01:55:04;;;;;;;32.40;12.40;;;;;;;;;;106885;1306;22125;-77
2022/12/18 01:57:31;;;;;;;34.10;11.60;;;;;;;;;;106657;1310;22749;-77
2022/12/18 02:00:04;;;;;;;30.20;10.70;;;;;;;;;;106694;1310;22051;-77
2022/12/18 02:02:40;;;;;;;28.60;9.70;;;;;;;;;;106714;1309;22088;-77
2022/12/18 02:05:08;;;;;;;33.40;11.30;;;;;;;;;;106593;1304;22138;-77
2022/12/18 02:07:41;;;;;;;23.30;7.40;;;;;;;;;;106722;1303;22049;-77
2022/12/18 02:10:12;;;;;;;22.30;7.90;;;;;;;;;;106675;1308;21975;-77
2022/12/18 02:12:38;;;;;;;34.50;11.90;;;;;;;;;;106658;1308;22075;-77
2022/12/18 02:15:29;;;;;;;28.60;11.10;;;;;;;;;;106721;1294;22805;-77
2022/12/18 02:18:04;;;;;;;27.90;9.90;;;;;;;;;;106275;1313;22133;-77
2022/12/18 02:20:36;;;;;;;33.70;12.00;;;;;;;;;;106310;1314;22813;-77
2022/12/18 02:23:17;;;;;;;33.10;11.40;;;;;;;;;;106438;1313;22106;-77
2022/12/18 02:25:54;;;;;;;27.80;10.40;;;;;;;;;;106405;1312;22372;-77
2022/12/18 02:28:23;;;;;;;26.60;9.30;;;;;;;;;;106304;1313;22145;-77
2022/12/18 02:30:52;;;;;;;27.10;8.60;;;;;;;;;;106538;1312;22129;-77
2022/12/18 02:33:21;;;;;;;32.30;10.10;;;;;;;;;;106616;1307;22358;-77
2022/12/18 02:35:48;;;;;;;28.80;10.30;;;;;;;;;;106548;1313;22135;-77
2022/12/18 02:38:15;;;;;;;32.20;10.90;;;;;;;;;;106203;1314;21990;-77
2022/12/18 02:40:44;;;;;;;33.50;11.40;;;;;;;;;;106300;1314;22852;-77
2022/12/18 02:43:14;;;;;;;28.40;11.00;;;;;;;;;;106297;1313;22008;-77
2022/12/18 02:45:50;;;;;;;27.20;10.30;;;;;;;;;;106249;1314;21709;-76
2022/12/18 02:48:21;;;;;;;28.80;10.90;;;;;;;;;;106295;1313;22151;-77
2022/12/18 02:50:57;;;;;;;30.20;11.10;;;;;;;;;;106311;1313;22909;-77
2022/12/18 02:53:31;;;;;;;29.60;10.40;;;;;;;;;;106539;1313;22103;-76
2022/12/18 02:56:11;;;;;;;29.70;10.60;;;;;;;;;;106536;1311;22080;-77
2022/12/18 02:58:38;;;;;;;26.80;10.60;;;;;;;;;;106599;1310;22532;-77
2022/12/18 03:01:13;;;;;;;32.50;11.60;;;;;;;;;;106755;1309;22104;-76
2022/12/18 03:03:44;;;;;;;31.30;11.60;;;;;;;;;;106643;1312;22113;-76
2022/12/18 03:06:38;;;;;;;33.40;11.50;;;;;;;;;;106691;1310;21975;-77
2022/12/18 03:09:07;;;;;;;32.00;11.80;;;;;;;;;;106666;1312;22710;-76
2022/12/18 03:14:23;;;;;;;30.40;10.80;;;;;;;;;;106674;1308;22073;-77
2022/12/18 03:16:53;;;;;;;36.20;10.30;;;;;;;;;;106637;1312;22079;-76
2022/12/18 03:19:21;;;;;;;38.50;13.40;;;;;;;;;;106931;1301;22815;-76
2022/12/18 03:21:51;;;;;;;37.00;14.60;;;;;;;;;;106672;1312;22122;-76
2022/12/18 03:24:19;;;;;;;56.00;16.40;;;;;;;;;;106617;1309;22798;-76
2022/12/18 03:26:47;;;;;;;44.80;16.20;;;;;;;;;;106952;1303;22815;-76
2022/12/18 03:29:18;;;;;;;39.50;14.30;;;;;;;;;;106619;1311;22069;-77
2022/12/18 03:31:48;;;;;;;42.90;14.70;;;;;;;;;;106689;1312;22087;-76
2022/12/18 03:34:19;;;;;;;34.20;12.90;;;;;;;;;;106692;1308;22103;-77
2022/12/18 03:36:46;;;;;;;36.80;13.70;;;;;;;;;;106677;1310;22079;-76
2022/12/18 03:39:13;;;;;;;35.30;12.90;;;;;;;;;;106681;1310;22737;-76
2022/12/18 03:41:39;;;;;;;36.90;12.90;;;;;;;;;;106660;1309;22165;-77
2022/12/18 03:44:38;;;;;;;31.60;11.90;;;;;;;;;;106726;1310;22054;-76
2022/12/18 03:47:24;;;;;;;35.90;13.40;;;;;;;;;;106744;1308;23105;-77
2022/12/18 03:49:58;;;;;;;35.10;12.50;;;;;;;;;;106802;1309;22057;-76
2022/12/18 03:52:28;;;;;;;36.80;13.30;;;;;;;;;;106749;1308;22819;-77
2022/12/18 03:54:55;;;;;;;31.80;11.40;;;;;;;;;;106683;1308;21968;-76
2022/12/18 03:57:24;;;;;;;36.20;11.80;;;;;;;;;;106597;1310;22618;-76
2022/12/18 03:59:56;;;;;;;36.70;12.50;;;;;;;;;;106643;1310;22118;-76
2022/12/18 04:02:25;;;;;;;35.70;11.20;;;;;;;;;;106594;1294;21857;-76
2022/12/18 04:04:53;;;;;;;29.80;11.50;;;;;;;;;;106515;1307;22071;-77
2022/12/18 04:07:20;;;;;;;33.10;12.80;;;;;;;;;;106618;1310;23018;-77
2022/12/18 04:09:48;;;;;;;32.60;11.50;;;;;;;;;;106566;1304;22777;-76
2022/12/18 04:12:15;;;;;;;30.80;11.60;;;;;;;;;;106706;1309;22079;-77
2022/12/18 04:14:42;;;;;;;36.80;12.40;;;;;;;;;;106668;1308;22607;-76
2022/12/18 04:17:09;;;;;;;34.20;12.10;;;;;;;;;;106701;1309;21994;-77
2022/12/18 04:19:37;;;;;;;36.40;12.90;;;;;;;;;;106656;1310;22075;-76
2022/12/18 04:22:03;;;;;;;34.10;11.70;;;;;;;;;;106629;1309;22106;-77
2022/12/18 04:24:33;;;;;;;32.00;11.90;;;;;;;;;;106598;1310;22072;-76
2022/12/18 04:27:15;;;;;;;36.00;11.80;;;;;;;;;;106639;1307;22119;-76
2022/12/18 04:29:46;;;;;;;31.70;11.10;;;;;;;;;;106637;1310;22691;-76
2022/12/18 04:32:14;;;;;;;33.70;13.10;;;;;;;;;;106632;1309;22106;-76
2022/12/18 04:34:42;;;;;;;34.70;12.30;;;;;;;;;;106664;1303;22089;-76
2022/12/18 04:37:08;;;;;;;33.00;11.10;;;;;;;;;;106707;1309;22047;-76
2022/12/18 04:39:35;;;;;;;38.00;13.50;;;;;;;;;;106654;1310;22682;-76
2022/12/18 04:42:07;;;;;;;33.40;12.10;;;;;;;;;;106601;1311;22126;-77
2022/12/18 04:44:34;;;;;;;35.90;12.90;;;;;;;;;;106613;1310;22060;-76
2022/12/18 04:47:00;;;;;;;43.20;14.20;;;;;;;;;;106905;1302;22113;-76
2022/12/18 04:49:27;;;;;;;36.10;12.80;;;;;;;;;;106874;1302;22378;-76
2022/12/18 04:51:54;;;;;;;37.70;13.00;;;;;;;;;;106733;1309;22056;-76
2022/12/18 04:54:21;;;;;;;34.60;12.80;;;;;;;;;;106632;1310;22098;-76
2022/12/18 04:56:48;;;;;;;36.20;13.30;;;;;;;;;;106668;1310;22127;-77
2022/12/18 04:59:14;;;;;;;33.50;13.50;;;;;;;;;;106879;1300;22099;-77
2022/12/18 05:01:42;;;;;;;38.60;13.50;;;;;;;;;;106531;1311;22091;-76
2022/12/18 05:04:08;;;;;;;35.80;12.90;;;;;;;;;;106644;1310;22070;-77
2022/12/18 05:06:36;;;;;;;37.50;12.70;;;;;;;;;;106559;1302;22735;-77
2022/12/18 05:09:02;;;;;;;39.60;14.00;;;;;;;;;;106631;1311;22087;-76
2022/12/18 05:11:30;;;;;;;35.10;13.90;;;;;;;;;;106582;1310;21973;-76
2022/12/18 05:13:56;;;;;;;34.60;12.50;;;;;;;;;;106648;1310;22059;-76
2022/12/18 05:16:23;;;;;;;31.30;12.10;;;;;;;;;;106583;1310;22055;-76
2022/12/18 05:18:50;;;;;;;34.20;12.50;;;;;;;;;;106563;1310;22122;-76
2022/12/18 05:21:17;;;;;;;38.90;12.30;;;;;;;;;;106571;1309;22074;-77
2022/12/18 05:23:43;;;;;;;35.80;12.40;;;;;;;;;;106702;1309;22101;-77
2022/12/18 05:26:14;;;;;;;36.30;12.80;;;;;;;;;;106608;1310;22673;-77
2022/12/18 05:28:41;;;;;;;35.60;11.70;;;;;;;;;;106691;1309;22074;-76
2022/12/18 05:31:09;;;;;;;31.40;12.10;;;;;;;;;;106684;1309;22825;-76
2022/12/18 05:33:35;;;;;;;38.30;12.50;;;;;;;;;;106610;1309;22113;-76
2022/12/18 05:36:03;;;;;;;37.00;13.30;;;;;;;;;;106612;1310;22070;-76
2022/12/18 05:38:30;;;;;;;36.70;14.20;;;;;;;;;;106559;1310;22093;-76
2022/12/18 05:40:57;;;;;;;37.60;13.10;;;;;;;;;;106534;1311;22067;-76
2022/12/18 05:43:24;;;;;;;35.10;11.40;;;;;;;;;;106650;1310;22066;-77
2022/12/18 05:45:52;;;;;;;37.80;12.50;;;;;;;;;;106875;1302;22147;-76
2022/12/18 05:48:19;;;;;;;41.10;13.00;;;;;;;;;;106610;1310;22098;-77
2022/12/18 05:50:47;;;;;;;42.40;13.40;;;;;;;;;;106590;1310;22176;-77
2022/12/18 05:53:15;;;;;;;49.70;15.00;;;;;;;;;;106686;1309;22072;-76
2022/12/18 05:55:43;;;;;;;50.00;15.40;;;;;;;;;;106644;1310;22010;-76
2022/12/18 05:58:11;;;;;;;40.30;14.30;;;;;;;;;;106638;1304;22647;-77
2022/12/18 06:00:39;;;;;;;41.30;14.40;;;;;;;;;;106477;1310;22144;-76
2022/12/18 06:03:08;;;;;;;43.70;14.30;;;;;;;;;;106587;1310;21985;-76
2022/12/18 06:05:37;;;;;;;39.10;13.60;;;;;;;;;;106576;1311;22118;-76
2022/12/18 06:08:05;;;;;;;32.40;12.10;;;;;;;;;;106562;1310;22062;-76
2022/12/18 06:10:32;;;;;;;41.20;13.70;;;;;;;;;;106581;1310;22376;-76
2022/12/18 06:13:00;;;;;;;38.60;14.10;;;;;;;;;;106456;1312;22061;-76
2022/12/18 06:15:28;;;;;;;38.30;13.90;;;;;;;;;;106615;1311;22101;-77
2022/12/18 06:17:55;;;;;;;40.10;14.20;;;;;;;;;;106657;1310;22817;-77
2022/12/18 06:20:23;;;;;;;43.10;14.90;;;;;;;;;;106521;1312;22384;-76
2022/12/18 06:22:51;;;;;;;39.60;13.60;;;;;;;;;;106570;1311;22145;-76
2022/12/18 06:25:18;;;;;;;37.80;15.50;;;;;;;;;;106565;1310;22051;-76
2022/12/18 06:27:47;;;;;;;38.60;15.20;;;;;;;;;;106614;1310;22079;-76
2022/12/18 06:30:15;;;;;;;40.20;14.90;;;;;;;;;;106584;1310;22081;-76
2022/12/18 06:32:42;;;;;;;39.30;14.10;;;;;;;;;;106769;1302;22085;-76
2022/12/18 06:35:10;;;;;;;40.30;13.40;;;;;;;;;;106600;1311;22810;-76
2022/12/18 06:37:38;;;;;;;40.40;14.00;;;;;;;;;;106692;1309;22765;-76
2022/12/18 06:40:05;;;;;;;47.60;15.60;;;;;;;;;;106597;1312;22075;-76
2022/12/18 06:42:33;;;;;;;49.90;16.70;;;;;;;;;;106518;1311;22092;-76
2022/12/18 06:45:00;;;;;;;45.00;17.20;;;;;;;;;;106565;1311;22124;-76
2022/12/18 06:47:28;;;;;;;47.10;15.40;;;;;;;;;;106635;1304;22070;-76
2022/12/18 06:50:13;;;;;;;53.10;17.10;;;;;;;;;;106621;1310;22085;-76
2022/12/18 06:52:40;;;;;;;45.30;16.10;;;;;;;;;;106578;1310;22744;-76
2022/12/18 06:55:08;;;;;;;43.20;15.40;;;;;;;;;;106589;1305;22798;-76
2022/12/18 06:57:36;;;;;;;46.50;15.60;;;;;;;;;;106597;1310;22122;-76
2022/12/18 07:00:05;;;;;;;42.00;14.60;;;;;;;;;;106619;1310;22069;-76
2022/12/18 07:02:34;;;;;;;41.70;14.20;;;;;;;;;;106521;1306;22068;-76
2022/12/18 07:05:04;;;;;;;40.20;14.60;;;;;;;;;;106552;1312;22065;-76
2022/12/18 07:07:34;;;;;;;44.60;14.80;;;;;;;;;;106542;1310;22089;-76
2022/12/18 07:10:04;;;;;;;39.30;14.30;;;;;;;;;;106540;1312;22109;-76
2022/12/18 07:12:33;;;;;;;44.20;15.50;;;;;;;;;;106537;1311;22085;-76
2022/12/18 07:15:02;;;;;;;40.10;14.10;;;;;;;;;;106563;1307;22106;-75
2022/12/18 07:17:31;;;;;;;40.00;13.00;;;;;;;;;;106571;1304;21980;-76
2022/12/18 07:20:00;;;;;;;42.90;14.90;;;;;;;;;;106589;1310;22104;-75
2022/12/18 07:22:30;;;;;;;40.90;15.30;;;;;;;;;;106483;1304;22315;-77
2022/12/18 07:24:58;;;;;;;41.50;14.20;;;;;;;;;;106536;1300;22095;-76
2022/12/18 07:27:28;;;;;;;39.60;14.80;;;;;;;;;;106558;1306;22467;-76
2022/12/18 07:29:56;;;;;;;40.60;14.60;;;;;;;;;;106486;1311;22196;-76
2022/12/18 07:32:25;;;;;;;44.00;15.80;;;;;;;;;;106586;1311;22358;-76
2022/12/18 07:34:54;;;;;;;40.60;15.50;;;;;;;;;;106516;1312;22147;-77
2022/12/18 07:37:24;;;;;;;46.40;16.50;;;;;;;;;;106506;1311;22051;-75
2022/12/18 07:39:53;;;;;;;45.80;15.70;;;;;;;;;;106604;1312;22695;-76
2022/12/18 07:42:31;;;;;;;47.20;16.40;;;;;;;;;;106474;1306;22003;-76
2022/12/18 07:45:01;;;;;;;47.70;16.30;;;;;;;;;;106510;1311;21657;-76
2022/12/18 07:47:31;;;;;;;48.20;16.40;;;;;;;;;;106516;1305;22098;-76
2022/12/18 07:50:01;;;;;;;49.20;17.10;;;;;;;;;;106519;1311;22162;-76
2022/12/18 07:52:31;;;;;;;44.70;16.60;;;;;;;;;;106463;1300;23232;-76
2022/12/18 07:55:01;;;;;;;40.70;15.60;;;;;;;;;;106491;1312;22118;-76
2022/12/18 08:04:26;;;;;;;51.70;20.30;;;;;;;;;;100377;1340;544980;-78
2022/12/18 08:06:53;;;;;;;50.40;18.50;;;;;;;;;;102563;1317;22502;-80
2022/12/18 08:09:20;;;;;;;51.00;19.80;;;;;;;;;;102449;1317;22524;-77
2022/12/18 08:11:47;;;;;;;55.60;20.60;;;;;;;;;;102420;1311;24430;-78
2022/12/18 08:14:14;;;;;;;52.70;20.60;;;;;;;;;;102766;1313;23094;-78
2022/12/18 08:16:41;;;;;;;56.30;21.70;;;;;;;;;;102563;1300;24287;-79
2022/12/18 08:19:08;;;;;;;52.80;20.30;;;;;;;;;;101784;1299;1510822;-81
2022/12/18 08:21:38;;;;;;;56.20;19.30;;;;;;;;;;103203;1287;23246;-78
2022/12/18 08:24:09;;;;;;;55.60;19.20;;;;;;;;;;103099;1287;22483;-77
2022/12/18 08:26:36;;;;;;;54.80;19.60;;;;;;;;;;103304;1292;25177;-78
2022/12/18 08:29:04;;;;;;;54.90;19.30;;;;;;;;;;103075;1292;24248;-78
2022/12/18 08:31:32;;;;;;;50.70;18.90;;;;;;;;;;103112;1288;22495;-80
2022/12/18 08:34:00;;;;;;;51.10;19.30;;;;;;;;;;103259;1286;24025;-77
2022/12/18 08:36:28;;;;;;;52.80;19.90;;;;;;;;;;103522;1291;22608;-78
2022/12/18 08:38:56;;;;;;;69.20;23.00;;;;;;;;;;103557;1291;22557;-81
2022/12/18 08:41:23;;;;;;;78.50;24.10;;;;;;;;;;103485;1305;22455;-79
2022/12/18 08:46:37;;;;;;;76.90;25.80;;;;;;;;;;103733;1303;22582;-81
2022/12/18 08:49:05;;;;;;;76.90;27.60;;;;;;;;;;103530;1284;22521;-79
2022/12/18 08:51:32;;;;;;;60.80;23.80;;;;;;;;;;103544;1304;22454;-81
2022/12/18 08:53:58;;;;;;;59.70;23.00;;;;;;;;;;103578;1298;24317;-78
2022/12/18 08:56:25;;;;;;;57.20;21.70;;;;;;;;;;103444;1306;22520;-82
2022/12/18 08:58:53;;;;;;;54.00;19.50;;;;;;;;;;103503;1306;22472;-79
2022/12/18 09:01:20;;;;;;;53.80;20.30;;;;;;;;;;103342;1300;23054;-77
2022/12/18 09:03:47;;;;;;;51.00;20.40;;;;;;;;;;103473;1306;22477;-78
2022/12/18 09:06:15;;;;;;;49.80;19.00;;;;;;;;;;103371;1301;22471;-79
2022/12/18 09:08:43;;;;;;;56.10;21.80;;;;;;;;;;103503;1275;22522;-78
2022/12/18 09:11:21;;;;;;;63.00;21.90;;;;;;;;;;103444;1307;25300;-77
2022/12/18 09:13:47;;;;;;;59.60;23.70;;;;;;;;;;103423;1306;22487;-79
2022/12/18 09:16:15;;;;;;;70.20;24.60;;;;;;;;;;103401;1305;21820;-80
2022/12/18 09:18:41;;;;;;;72.50;26.60;;;;;;;;;;103435;1306;22475;-78
2022/12/18 09:21:09;;;;;;;68.20;25.90;;;;;;;;;;103330;1299;23223;-81
2022/12/18 09:23:36;;;;;;;69.60;27.30;;;;;;;;;;103306;1305;22474;-78
2022/12/18 09:26:03;;;;;;;69.20;25.60;;;;;;;;;;103341;1306;22552;-81
2022/12/18 09:28:30;;;;;;;72.40;27.60;;;;;;;;;;103420;1306;22754;-78
2022/12/18 09:30:56;;;;;;;68.60;27.20;;;;;;;;;;103392;1281;26534;-77
2022/12/18 09:33:24;;;;;;;77.20;28.50;;;;;;;;;;103462;1289;22485;-81
2022/12/18 09:35:51;;;;;;;70.00;28.10;;;;;;;;;;106793;1298;21977;-75
2022/12/18 09:38:19;;;;;;;65.70;25.40;;;;;;;;;;106783;1306;21985;-75
2022/12/18 09:40:50;;;;;;;67.40;25.50;;;;;;;;;;106883;1281;22187;-76
2022/12/18 09:43:20;;;;;;;70.40;24.40;;;;;;;;;;106678;1286;22331;-76
2022/12/18 09:45:49;;;;;;;62.20;24.90;;;;;;;;;;106784;1307;22087;-76
2022/12/18 09:48:28;;;;;;;67.40;27.00;;;;;;;;;;106857;1306;22190;-76
2022/12/18 09:50:57;;;;;;;72.20;26.20;;;;;;;;;;106872;1306;22180;-75
2022/12/18 09:53:26;;;;;;;66.80;26.40;;;;;;;;;;106879;1306;22190;-76
2022/12/18 09:55:54;;;;;;;69.00;28.00;;;;;;;;;;106822;1306;22044;-76
2022/12/18 09:58:41;;;;;;;65.80;25.50;;;;;;;;;;106746;1307;22781;-76
2022/12/18 10:01:16;;;;;;;69.70;26.10;;;;;;;;;;106654;1308;22233;-76
2022/12/18 10:03:48;;;;;;;66.70;25.10;;;;;;;;;;106732;1309;22742;-76
2022/12/18 10:06:35;;;;;;;62.80;25.40;;;;;;;;;;106832;1299;22085;-75
2022/12/18 10:09:06;;;;;;;60.90;23.70;;;;;;;;;;106848;1306;22077;-76
2022/12/18 10:11:38;;;;;;;58.10;24.00;;;;;;;;;;106877;1306;22792;-76
2022/12/18 10:14:15;;;;;;;56.50;23.80;;;;;;;;;;106846;1306;22137;-75
2022/12/18 10:16:42;;;;;;;58.10;25.10;;;;;;;;;;106671;1309;22804;-76
2022/12/18 10:19:21;;;;;;;56.60;24.20;;;;;;;;;;106853;1307;22103;-77
2022/12/18 10:21:56;;;;;;;58.40;24.10;;;;;;;;;;106966;1301;22042;-77
2022/12/18 10:24:29;;;;;;;52.30;22.30;;;;;;;;;;106760;1308;22247;-76
2022/12/18 10:27:01;;;;;;;48.40;21.20;;;;;;;;;;106864;1299;21982;-76
2022/12/18 10:29:29;;;;;;;45.20;20.30;;;;;;;;;;106783;1306;22583;-76
2022/12/18 10:31:55;;;;;;;53.70;21.20;;;;;;;;;;106757;1306;22079;-76
2022/12/18 10:34:23;;;;;;;54.80;21.50;;;;;;;;;;106753;1306;22884;-76
2022/12/18 10:36:50;;;;;;;48.90;21.20;;;;;;;;;;106750;1307;22951;-76
2022/12/18 10:39:22;;;;;;;55.00;20.80;;;;;;;;;;106783;1308;22335;-77
2022/12/18 10:41:49;;;;;;;55.60;21.90;;;;;;;;;;106670;1309;22063;-76
2022/12/18 10:44:21;;;;;;;52.30;22.20;;;;;;;;;;106728;1308;22141;-77
2022/12/18 10:47:00;;;;;;;54.70;21.80;;;;;;;;;;106658;1307;22041;-76
2022/12/18 10:49:38;;;;;;;48.00;21.00;;;;;;;;;;106705;1301;22122;-77
2022/12/18 10:52:07;;;;;;;47.90;20.00;;;;;;;;;;106979;1300;22075;-77
2022/12/18 10:54:35;;;;;;;47.10;20.10;;;;;;;;;;106838;1306;22073;-77
2022/12/18 10:57:23;;;;;;;49.80;20.20;;;;;;;;;;106689;1308;22842;-77
2022/12/18 10:59:52;;;;;;;48.40;19.50;;;;;;;;;;106679;1308;22925;-77
2022/12/18 11:02:25;;;;;;;50.50;20.30;;;;;;;;;;106626;1308;22072;-76
2022/12/18 11:04:52;;;;;;;53.10;20.60;;;;;;;;;;106738;1308;22119;-77
2022/12/18 11:07:20;;;;;;;48.70;19.60;;;;;;;;;;106609;1309;22123;-78
2022/12/18 11:09:59;;;;;;;44.90;19.60;;;;;;;;;;106772;1308;22819;-77
2022/12/18 11:12:29;;;;;;;43.60;18.00;;;;;;;;;;106710;1295;22750;-77
2022/12/18 11:14:57;;;;;;;43.80;18.40;;;;;;;;;;106707;1309;22129;-76
2022/12/18 11:17:35;;;;;;;44.60;19.20;;;;;;;;;;106701;1308;22116;-77
2022/12/18 11:20:22;;;;;;;49.80;19.00;;;;;;;;;;106758;1308;22105;-77
2022/12/18 11:23:18;;;;;;;48.80;19.70;;;;;;;;;;106224;1308;22137;-77
2022/12/18 11:25:59;;;;;;;41.40;17.30;;;;;;;;;;106042;1313;22270;-77
2022/12/18 11:28:50;;;;;;;41.20;16.50;;;;;;;;;;106146;1315;22229;-78
2022/12/18 11:31:17;;;;;;;44.80;17.70;;;;;;;;;;106259;1315;22888;-77
2022/12/18 11:33:46;;;;;;;48.10;20.20;;;;;;;;;;106248;1315;22161;-78
2022/12/18 11:36:14;;;;;;;44.40;19.40;;;;;;;;;;106251;1315;22084;-77
2022/12/18 11:38:42;;;;;;;47.80;19.90;;;;;;;;;;106144;1314;21983;-79
2022/12/18 11:42:08;;;;;;;43.20;18.50;;;;;;;;;;106073;1314;22045;-76
2022/12/18 11:44:28;;;;;;;39.30;17.30;;;;;;;;;;106053;1302;22131;-77
2022/12/18 11:46:59;;;;;;;41.10;18.30;;;;;;;;;;106102;1314;22881;-78
2022/12/18 11:49:34;;;;;;;42.90;18.00;;;;;;;;;;106104;1308;22135;-77
2022/12/18 11:52:04;;;;;;;42.40;19.00;;;;;;;;;;106219;1313;22364;-78
2022/12/18 11:54:31;;;;;;;48.50;20.20;;;;;;;;;;106243;1315;22345;-79
2022/12/18 11:57:19;;;;;;;42.50;18.00;;;;;;;;;;106179;1315;22132;-80
2022/12/18 11:59:58;;;;;;;43.80;17.90;;;;;;;;;;106305;1309;22685;-77
2022/12/18 12:02:39;;;;;;;42.60;17.70;;;;;;;;;;106573;1311;22793;-78
2022/12/18 12:05:09;;;;;;;42.40;18.90;;;;;;;;;;106583;1310;22109;-76
2022/12/18 12:07:51;;;;;;;40.10;17.70;;;;;;;;;;106617;1310;22086;-77
2022/12/18 12:10:40;;;;;;;39.60;16.20;;;;;;;;;;106617;1309;22066;-77
2022/12/18 12:13:26;;;;;;;42.50;18.00;;;;;;;;;;106607;1298;22067;-77
2022/12/18 12:15:56;;;;;;;43.30;19.30;;;;;;;;;;106603;1309;22088;-77
2022/12/18 12:18:23;;;;;;;42.90;19.10;;;;;;;;;;106615;1309;22324;-80
2022/12/18 12:21:02;;;;;;;41.60;18.20;;;;;;;;;;106616;1311;22794;-77
2022/12/18 12:23:55;;;;;;;39.80;18.40;;;;;;;;;;106621;1311;22189;-78
2022/12/18 12:26:34;;;;;;;42.50;17.30;;;;;;;;;;106598;1310;22144;-78
2022/12/18 12:29:07;;;;;;;43.70;17.70;;;;;;;;;;106615;1303;22094;-78
2022/12/18 12:31:52;;;;;;;44.00;19.30;;;;;;;;;;106647;1309;22100;-79
2022/12/18 12:34:39;;;;;;;39.50;17.50;;;;;;;;;;106687;1309;22120;-77
2022/12/18 12:37:23;;;;;;;48.70;19.80;;;;;;;;;;106700;1298;22812;-79
2022/12/18 12:39:51;;;;;;;44.80;20.30;;;;;;;;;;106606;1311;22183;-77
2022/12/18 12:45:36;;;;;;;43.60;18.60;;;;;;;;;;106593;1311;22681;-79
2022/12/18 12:48:05;;;;;;;43.40;18.90;;;;;;;;;;106618;1303;22373;-78
2022/12/18 12:50:34;;;;;;;37.70;16.60;;;;;;;;;;106589;1309;22087;-77
2022/12/18 12:53:01;;;;;;;42.20;18.20;;;;;;;;;;106628;1309;22348;-79
2022/12/18 12:55:28;;;;;;;44.00;18.50;;;;;;;;;;106678;1301;22035;-78
2022/12/18 12:57:58;;;;;;;45.60;19.10;;;;;;;;;;106504;1312;22728;-78
2022/12/18 13:00:26;;;;;;;43.20;19.10;;;;;;;;;;106573;1298;22549;-78
2022/12/18 13:02:59;;;;;;;45.60;19.10;;;;;;;;;;106582;1310;22150;-77
2022/12/18 13:05:31;;;;;;;42.40;18.60;;;;;;;;;;106578;1311;21950;-78
2022/12/18 13:08:06;;;;;;;43.80;17.90;;;;;;;;;;106593;1311;22078;-78
2022/12/18 13:10:33;;;;;;;46.40;19.80;;;;;;;;;;106633;1303;22112;-78
2022/12/18 13:13:06;;;;;;;41.20;18.70;;;;;;;;;;106620;1312;22753;-77
2022/12/18 13:15:41;;;;;;;45.50;17.70;;;;;;;;;;106615;1309;22055;-77
2022/12/18 13:18:07;;;;;;;44.90;19.10;;;;;;;;;;106607;1310;22091;-76
2022/12/18 13:20:36;;;;;;;46.10;19.50;;;;;;;;;;106594;1304;22123;-78
2022/12/18 13:23:21;;;;;;;45.70;19.60;;;;;;;;;;106599;1311;22089;-78
2022/12/18 13:25:48;;;;;;;45.70;19.80;;;;;;;;;;106666;1311;22766;-78
2022/12/18 13:28:16;;;;;;;45.50;19.60;;;;;;;;;;106509;1312;22101;-77
2022/12/18 13:30:46;;;;;;;44.80;19.30;;;;;;;;;;106619;1310;22073;-77
2022/12/18 13:33:13;;;;;;;45.00;19.00;;;;;;;;;;106655;1303;22044;-77
2022/12/18 13:35:40;;;;;;;45.50;18.50;;;;;;;;;;106662;1297;22080;-77
2022/12/18 13:38:20;;;;;;;45.00;18.40;;;;;;;;;;106651;1312;22143;-76
2022/12/18 13:40:47;;;;;;;42.70;18.20;;;;;;;;;;106566;1310;22074;-77
2022/12/18 13:43:17;;;;;;;48.30;20.40;;;;;;;;;;106596;1299;22072;-77
2022/12/18 13:45:45;;;;;;;46.50;19.20;;;;;;;;;;106601;1310;22063;-76
2022/12/18 13:48:17;;;;;;;45.70;18.80;;;;;;;;;;106592;1311;22092;-77
2022/12/18 13:50:48;;;;;;;48.20;18.00;;;;;;;;;;106565;1309;22082;-78
2022/12/18 13:53:19;;;;;;;47.50;17.30;;;;;;;;;;106650;1312;22203;-75
2022/12/18 13:55:46;;;;;;;43.30;17.60;;;;;;;;;;106610;1309;22024;-77
2022/12/18 13:58:13;;;;;;;43.70;18.50;;;;;;;;;;106604;1305;22145;-76
2022/12/18 14:00:44;;;;;;;53.20;19.60;;;;;;;;;;106570;1310;22914;-76
2022/12/18 14:03:18;;;;;;;52.60;19.70;;;;;;;;;;106592;1311;22080;-76
2022/12/18 14:05:49;;;;;;;50.40;19.30;;;;;;;;;;106368;1310;22564;-76
2022/12/18 14:08:17;;;;;;;51.50;19.40;;;;;;;;;;106597;1311;22112;-76
2022/12/18 14:10:45;;;;;;;53.00;20.60;;;;;;;;;;106589;1310;22110;-76
2022/12/18 14:13:16;;;;;;;53.30;20.80;;;;;;;;;;106484;1309;22138;-76
2022/12/18 14:15:44;;;;;;;48.50;20.00;;;;;;;;;;106609;1311;21970;-76
2022/12/18 14:18:14;;;;;;;51.00;19.00;;;;;;;;;;106509;1310;22323;-77
2022/12/18 14:20:42;;;;;;;51.70;19.00;;;;;;;;;;106691;1309;22722;-76
2022/12/18 14:23:28;;;;;;;53.20;19.80;;;;;;;;;;106624;1307;22165;-76
2022/12/18 14:25:54;;;;;;;49.80;17.80;;;;;;;;;;106646;1312;22076;-77
2022/12/18 14:28:22;;;;;;;46.80;18.60;;;;;;;;;;106577;1311;22876;-76
2022/12/18 14:30:49;;;;;;;47.50;17.20;;;;;;;;;;106566;1311;22108;-76
2022/12/18 14:33:21;;;;;;;51.40;18.20;;;;;;;;;;106475;1312;22247;-76
2022/12/18 14:35:55;;;;;;;49.10;16.40;;;;;;;;;;106536;1309;22178;-76
2022/12/18 14:38:22;;;;;;;50.30;18.70;;;;;;;;;;106533;1313;22153;-76